createdAt,value
2022-08-04T00:00:07.158Z,1.30
2022-08-04T00:01:16.707Z,1.50
2022-08-04T00:02:25.817Z,1.48
2022-08-04T00:03:33.526Z,1.30
2022-08-04T00:04:43.878Z,1.70
2022-08-04T00:06:03.168Z,1.75
2022-08-04T00:07:13.491Z,1.38
2022-08-04T00:08:26.257Z,2.03
2022-08-04T00:09:37.455Z,1.80
2022-08-04T00:11:46.567Z,1.35
2022-08-04T00:12:51.950Z,1.45
2022-08-04T00:14:16.202Z,2.30
2022-08-04T00:15:19.786Z,1.48
2022-08-04T00:16:24.901Z,1.60
2022-08-04T00:17:41.767Z,1.45
2022-08-04T00:19:10.667Z,1.50
2022-08-04T00:20:18.437Z,1.38
2022-08-04T00:21:24.868Z,1.48
2022-08-04T00:22:31.697Z,1.10
2022-08-04T00:24:11.868Z,1.33
2022-08-04T00:25:01.714Z,1.60
2022-08-04T00:26:04.238Z,1.58
2022-08-04T00:27:08.153Z,1.75
2022-08-04T00:28:10.262Z,1.38
2022-08-04T00:29:12.167Z,1.15
2022-08-04T00:30:14.085Z,1.38
2022-08-04T00:31:16.560Z,1.60
2022-08-04T00:32:33.894Z,1.73
2022-08-04T00:33:38.206Z,1.65
2022-08-04T00:34:41.126Z,1.67
2022-08-04T00:35:44.985Z,1.55
2022-08-04T00:36:47.009Z,1.80
2022-08-04T00:37:49.602Z,1.73
2022-08-04T00:38:52.376Z,1.48
2022-08-04T00:39:55.415Z,1.30
2022-08-04T00:41:57.102Z,1.50
2022-08-04T00:43:18.929Z,1.30
2022-08-04T00:44:35.393Z,1.42
2022-08-04T00:46:17.124Z,2.00
2022-08-04T00:47:44.860Z,1.10
2022-08-04T00:48:52.682Z,1.23
2022-08-04T00:50:15.136Z,1.50
2022-08-04T00:51:42.280Z,1.55
2022-08-04T00:52:46.897Z,1.25
2022-08-04T00:54:10.036Z,1.60
2022-08-04T00:55:32.921Z,1.73
2022-08-04T00:57:00.909Z,1.77
2022-08-04T00:58:29.404Z,1.35
2022-08-04T00:59:42.831Z,1.40
2022-08-04T01:00:59.761Z,1.67
2022-08-04T01:02:25.078Z,1.27
2022-08-04T01:03:49.975Z,1.50
2022-08-04T01:05:06.696Z,1.52
2022-08-04T01:06:30.694Z,1.60
2022-08-04T01:07:53.871Z,1.33
2022-08-04T01:09:08.465Z,1.45
2022-08-04T01:10:30.856Z,1.40
2022-08-04T01:12:07.508Z,1.60
2022-08-04T01:13:25.668Z,1.75
2022-08-04T01:14:48.877Z,1.50
2022-08-04T01:16:05.979Z,1.50
2022-08-04T01:17:46.492Z,1.70
2022-08-04T01:19:08.103Z,1.60
2022-08-04T01:20:11.572Z,1.75
2022-08-04T01:21:31.868Z,1.30
2022-08-04T01:22:33.693Z,1.92
2022-08-04T01:23:50.812Z,1.77
2022-08-04T01:25:11.343Z,1.73
2022-08-04T01:26:43.506Z,1.80
2022-08-04T01:28:19.730Z,1.73
2022-08-04T01:29:23.532Z,1.70
2022-08-04T01:30:27.722Z,1.70
2022-08-04T01:32:52.165Z,1.83
2022-08-04T01:34:04.506Z,1.70
2022-08-04T01:35:46.717Z,1.50
2022-08-04T01:37:04.388Z,1.55
2022-08-04T01:38:33.497Z,1.63
2022-08-04T01:39:40.722Z,1.55
2022-08-04T01:40:44.680Z,1.33
2022-08-04T01:41:57.920Z,1.60
2022-08-04T01:43:02.089Z,1.55
2022-08-04T01:44:06.062Z,1.60
2022-08-04T01:45:10.568Z,1.92
2022-08-04T01:46:15.096Z,2.20
2022-08-04T01:47:20.993Z,1.58
2022-08-04T01:48:27.864Z,1.70
2022-08-04T01:49:39.968Z,1.95
2022-08-04T01:50:44.708Z,1.70
2022-08-04T01:51:49.583Z,1.73
2022-08-04T01:52:54.550Z,1.58
2022-08-04T01:53:56.822Z,1.73
2022-08-04T01:55:00.118Z,1.60
2022-08-04T01:56:03.822Z,1.80
2022-08-04T01:57:38.030Z,1.80
2022-08-04T01:58:30.866Z,1.92
2022-08-04T01:59:35.517Z,1.70
2022-08-04T02:00:46.062Z,1.90
2022-08-04T02:01:48.806Z,2.33
2022-08-04T02:02:51.733Z,2.30
2022-08-04T02:04:19.369Z,1.90
2022-08-04T02:05:18.131Z,2.00
2022-08-04T02:06:38.068Z,1.65
2022-08-04T02:07:45.709Z,1.92
2022-08-04T02:09:23.139Z,1.98
2022-08-04T02:10:48.209Z,1.60
2022-08-04T02:12:04.754Z,2.38
2022-08-04T02:13:20.974Z,2.03
2022-08-04T02:14:50.882Z,2.00
2022-08-04T02:16:11.896Z,1.80
2022-08-04T02:17:29.049Z,1.77
2022-08-04T02:18:51.985Z,1.88
2022-08-04T02:20:15.644Z,2.05
2022-08-04T02:21:20.796Z,2.10
2022-08-04T02:22:26.148Z,2.17
2022-08-04T02:23:37.430Z,2.30
2022-08-04T02:24:46.729Z,1.92
2022-08-04T02:25:56.031Z,2.10
2022-08-04T02:27:01.352Z,2.20
2022-08-04T02:28:12.526Z,1.90
2022-08-04T02:30:22.581Z,1.92
2022-08-04T02:31:43.382Z,2.08
2022-08-04T02:32:49.785Z,2.25
2022-08-04T02:33:59.097Z,1.95
2022-08-04T02:35:25.489Z,1.98
2022-08-04T02:36:42.701Z,1.90
2022-08-04T02:37:49.167Z,1.92
2022-08-04T02:39:02.436Z,2.40
2022-08-04T02:40:07.290Z,2.30
2022-08-04T02:41:10.433Z,2.13
2022-08-04T02:42:13.996Z,2.42
2022-08-04T02:43:51.306Z,2.10
2022-08-04T02:44:47.126Z,2.35
2022-08-04T02:45:51.938Z,2.40
2022-08-04T02:46:55.365Z,2.10
2022-08-04T02:48:08.115Z,2.17
2022-08-04T02:49:24.167Z,2.30
2022-08-04T02:50:28.454Z,2.08
2022-08-04T02:51:35.256Z,1.92
2022-08-04T02:52:39.279Z,2.20
2022-08-04T02:53:43.637Z,2.00
2022-08-04T02:54:47.985Z,2.40
2022-08-04T02:55:56.656Z,2.17
2022-08-04T02:57:00.894Z,2.50
2022-08-04T02:58:05.215Z,2.40
2022-08-04T02:59:10.613Z,2.08
2022-08-04T03:00:18.743Z,2.28
2022-08-04T03:01:23.631Z,2.20
2022-08-04T03:02:53.593Z,2.50
2022-08-04T03:04:24.721Z,2.28
2022-08-04T03:07:33.872Z,1.92
2022-08-04T03:09:02.425Z,1.58
2022-08-04T03:10:21.735Z,1.52
2022-08-04T03:11:50.444Z,1.92
2022-08-04T03:13:14.839Z,2.20
2022-08-04T03:14:59.289Z,2.15
2022-08-04T03:16:17.448Z,2.17
2022-08-04T03:17:30.810Z,1.80
2022-08-04T03:18:54.286Z,2.10
2022-08-04T03:20:16.724Z,1.80
2022-08-04T03:21:50.562Z,2.22
2022-08-04T03:23:29.961Z,2.50
2022-08-04T03:24:37.649Z,2.10
2022-08-04T03:25:56.717Z,1.85
2022-08-04T03:27:17.892Z,1.85
2022-08-04T03:28:28.561Z,2.28
2022-08-04T03:29:55.517Z,2.03
2022-08-04T03:31:37.137Z,1.80
2022-08-04T03:33:02.988Z,1.50
2022-08-04T03:34:16.218Z,1.40
2022-08-04T03:35:47.403Z,1.83
2022-08-04T03:37:24.264Z,1.88
2022-08-04T03:39:04.103Z,2.20
2022-08-04T03:40:17.767Z,1.75
2022-08-04T03:41:51.552Z,1.92
2022-08-04T03:43:59.034Z,1.73
2022-08-04T03:45:00.152Z,2.00
2022-08-04T03:46:19.511Z,2.00
2022-08-04T03:47:44.224Z,1.60
2022-08-04T03:49:05.442Z,1.98
2022-08-04T03:50:42.198Z,2.10
2022-08-04T03:52:22.709Z,1.63
2022-08-04T03:53:37.025Z,1.90
2022-08-04T03:55:03.277Z,1.70
2022-08-04T03:56:32.658Z,1.67
2022-08-04T03:58:12.268Z,2.13
2022-08-04T03:59:20.033Z,1.45
2022-08-04T04:00:27.529Z,2.15
2022-08-04T04:02:01.973Z,1.75
2022-08-04T04:03:28.518Z,1.77
2022-08-04T04:05:00.169Z,1.55
2022-08-04T04:06:21.307Z,1.60
2022-08-04T04:08:04.806Z,1.90
2022-08-04T04:09:20.777Z,1.83
2022-08-04T04:10:39.198Z,1.83
2022-08-04T04:11:57.203Z,1.60
2022-08-04T04:13:30.172Z,1.80
2022-08-04T04:15:06.773Z,1.90
2022-08-04T04:16:17.859Z,1.63
2022-08-04T04:18:58.403Z,1.60
2022-08-04T04:20:37.515Z,1.38
2022-08-04T04:21:59.947Z,1.88
2022-08-04T04:23:20.584Z,1.80
2022-08-04T04:25:04.621Z,1.70
2022-08-04T04:26:34.196Z,1.88
2022-08-04T04:28:45.247Z,2.00
2022-08-04T04:30:00.912Z,2.05
2022-08-04T04:31:07.582Z,1.73
2022-08-04T04:32:21.811Z,1.60
2022-08-04T04:33:29.671Z,1.83
2022-08-04T04:34:46.226Z,2.00
2022-08-04T04:36:06.824Z,1.52
2022-08-04T04:37:28.029Z,2.13
2022-08-04T04:38:46.286Z,1.80
2022-08-04T04:40:10.938Z,1.60
2022-08-04T04:41:29.843Z,1.70
2022-08-04T04:42:31.926Z,2.28
2022-08-04T04:44:11.259Z,1.42
2022-08-04T04:45:33.260Z,1.45
2022-08-04T04:46:39.530Z,1.73
2022-08-04T04:48:09.201Z,1.90
2022-08-04T04:49:20.731Z,1.75
2022-08-04T04:50:51.733Z,1.57
2022-08-04T04:52:03.262Z,1.85
2022-08-04T04:53:21.398Z,1.90
2022-08-04T04:54:33.726Z,1.70
2022-08-04T04:55:47.966Z,1.80
2022-08-04T04:57:17.455Z,1.85
2022-08-04T04:58:23.013Z,1.85
2022-08-04T04:59:33.256Z,1.90
2022-08-04T05:01:08.596Z,1.77
2022-08-04T05:02:28.459Z,1.80
2022-08-04T05:04:03.584Z,1.80
2022-08-04T05:05:49.070Z,1.77
2022-08-04T05:10:06.353Z,1.90
2022-08-04T05:14:35.372Z,1.80
2022-08-04T05:20:53.181Z,1.90
2022-08-04T05:22:50.808Z,2.05
2022-08-04T05:25:33.809Z,1.83
2022-08-04T05:26:48.519Z,1.85
2022-08-04T05:30:20.135Z,2.00
2022-08-04T05:31:26.871Z,1.75
2022-08-04T05:32:37.855Z,1.77
2022-08-04T05:34:11.842Z,1.95
2022-08-04T05:36:08.934Z,2.20
2022-08-04T05:37:13.328Z,1.73
2022-08-04T05:38:22.886Z,1.80
2022-08-04T05:39:39.826Z,2.03
2022-08-04T05:40:44.703Z,1.88
2022-08-04T05:41:55.327Z,1.80
2022-08-04T05:43:01.714Z,1.77
2022-08-04T05:44:04.982Z,1.90
2022-08-04T05:45:14.113Z,2.80
2022-08-04T05:46:17.908Z,2.03
2022-08-04T05:47:22.401Z,2.00
2022-08-04T05:48:27.064Z,1.95
2022-08-04T05:49:39.485Z,2.08
2022-08-04T05:50:42.633Z,1.88
2022-08-04T05:51:46.270Z,2.20
2022-08-04T05:52:49.809Z,1.90
2022-08-04T05:53:54.775Z,1.95
2022-08-04T05:54:58.548Z,1.90
2022-08-04T05:56:03.690Z,2.20
2022-08-04T05:57:07.156Z,2.03
2022-08-04T05:58:09.892Z,1.80
2022-08-04T05:59:13.866Z,1.90
2022-08-04T06:00:39.811Z,2.10
2022-08-04T06:01:55.511Z,2.05
2022-08-04T06:03:00.036Z,2.00
2022-08-04T06:04:08.060Z,2.10
2022-08-04T06:05:17.750Z,2.20
2022-08-04T06:06:27.999Z,1.92
2022-08-04T06:08:12.553Z,1.95
2022-08-04T06:09:17.669Z,1.83
2022-08-04T06:10:29.297Z,1.90
2022-08-04T06:11:59.161Z,1.70
2022-08-04T06:13:49.244Z,2.30
2022-08-04T06:14:43.992Z,1.77
2022-08-04T06:15:48.952Z,1.70
2022-08-04T06:16:55.063Z,2.35
2022-08-04T06:18:42.169Z,2.35
2022-08-04T06:20:02.032Z,2.10
2022-08-04T06:20:54.085Z,2.63
2022-08-04T06:21:59.444Z,2.97
2022-08-04T06:23:06.111Z,2.08
2022-08-04T06:24:11.697Z,2.92
2022-08-04T06:25:20.539Z,1.85
2022-08-04T06:26:23.930Z,1.50
2022-08-04T06:27:28.453Z,1.65
2022-08-04T06:28:30.832Z,1.70
2022-08-04T06:29:51.405Z,1.60
2022-08-04T06:30:55.476Z,1.75
2022-08-04T06:32:28.435Z,1.90
2022-08-04T06:33:33.056Z,1.80
2022-08-04T06:35:01.974Z,2.30
2022-08-04T06:36:06.981Z,2.53
2022-08-04T06:37:09.576Z,2.30
2022-08-04T06:38:12.053Z,2.05
2022-08-04T06:39:14.635Z,1.83
2022-08-04T06:40:31.064Z,1.88
2022-08-04T06:41:34.868Z,1.88
2022-08-04T06:42:38.024Z,2.30
2022-08-04T06:43:42.961Z,1.80
2022-08-04T06:44:49.301Z,1.80
2022-08-04T06:45:53.018Z,2.75
2022-08-04T06:46:55.962Z,3.03
2022-08-04T06:47:59.962Z,2.33
2022-08-04T06:49:02.295Z,2.65
2022-08-04T06:51:28.745Z,2.15
2022-08-04T06:51:37.240Z,1.95
2022-08-04T06:52:47.065Z,1.88
2022-08-04T06:53:49.165Z,2.13
2022-08-04T06:54:52.928Z,2.13
2022-08-04T06:55:57.513Z,1.70
2022-08-04T06:57:01.408Z,1.85
2022-08-04T06:58:03.819Z,2.08
2022-08-04T06:59:06.383Z,2.00
2022-08-04T07:00:13.983Z,2.00
2022-08-04T07:01:19.424Z,2.00
2022-08-04T07:02:25.688Z,2.13
2022-08-04T07:03:28.354Z,1.85
2022-08-04T07:04:30.389Z,1.70
2022-08-04T07:05:32.814Z,1.75
2022-08-04T07:06:34.922Z,1.73
2022-08-04T07:07:56.416Z,2.17
2022-08-04T07:08:59.597Z,1.70
2022-08-04T07:10:02.287Z,1.80
2022-08-04T07:11:05.557Z,2.00
2022-08-04T07:12:11.066Z,2.10
2022-08-04T07:13:13.146Z,1.63
2022-08-04T07:14:17.221Z,2.35
2022-08-04T07:15:20.813Z,1.85
2022-08-04T07:16:30.569Z,2.05
2022-08-04T07:17:35.474Z,2.03
2022-08-04T07:18:37.300Z,2.00
2022-08-04T07:19:39.589Z,2.10
2022-08-04T07:20:45.914Z,1.80
2022-08-04T07:22:18.088Z,1.98
2022-08-04T07:23:11.995Z,1.80
2022-08-04T07:24:15.699Z,1.70
2022-08-04T07:25:18.311Z,1.83
2022-08-04T07:26:30.504Z,2.10
2022-08-04T07:27:47.318Z,2.10
2022-08-04T07:28:50.794Z,1.90
2022-08-04T07:29:53.879Z,1.98
2022-08-04T07:30:57.465Z,2.08
2022-08-04T07:32:00.169Z,2.10
2022-08-04T07:33:03.175Z,2.20
2022-08-04T07:34:17.100Z,1.98
2022-08-04T07:36:03.842Z,2.00
2022-08-04T07:36:50.679Z,2.05
2022-08-04T07:37:53.271Z,1.80
2022-08-04T07:38:56.454Z,1.73
2022-08-04T07:39:58.390Z,2.42
2022-08-04T07:41:01.415Z,2.40
2022-08-04T07:42:04.469Z,2.17
2022-08-04T07:43:06.691Z,2.53
2022-08-04T07:44:09.312Z,1.90
2022-08-04T07:45:11.542Z,2.13
2022-08-04T07:46:13.411Z,2.45
2022-08-04T07:47:15.348Z,2.60
2022-08-04T07:48:18.887Z,2.00
2022-08-04T07:49:55.193Z,2.28
2022-08-04T07:50:45.138Z,2.00
2022-08-04T07:51:47.041Z,2.00
2022-08-04T07:53:09.054Z,2.75
2022-08-04T07:54:13.789Z,2.40
2022-08-04T07:55:16.284Z,2.03
2022-08-04T07:56:18.360Z,2.28
2022-08-04T07:57:40.367Z,2.10
2022-08-04T07:58:42.917Z,2.33
2022-08-04T07:59:48.305Z,2.17
2022-08-04T08:00:52.378Z,2.10
2022-08-04T08:01:55.788Z,2.30
2022-08-04T08:02:58.239Z,2.03
2022-08-04T08:04:01.102Z,2.40
2022-08-04T08:05:04.130Z,2.25
2022-08-04T08:06:31.655Z,1.90
2022-08-04T08:07:28.411Z,2.40
2022-08-04T08:08:30.458Z,2.63
2022-08-04T08:09:34.724Z,3.00
2022-08-04T08:10:36.839Z,2.40
2022-08-04T08:12:36.283Z,2.97
2022-08-04T08:13:01.997Z,2.28
2022-08-04T08:14:04.925Z,2.80
2022-08-04T08:15:08.553Z,2.78
2022-08-04T08:16:12.913Z,2.42
2022-08-04T08:17:15.017Z,2.55
2022-08-04T08:18:17.216Z,2.78
2022-08-04T08:19:19.255Z,2.90
2022-08-04T08:20:29.169Z,2.40
2022-08-04T08:21:32.707Z,2.58
2022-08-04T08:22:36.010Z,2.58
2022-08-04T08:23:38.832Z,2.35
2022-08-04T08:24:41.264Z,2.70
2022-08-04T08:25:43.345Z,2.85
2022-08-04T08:26:45.910Z,2.78
2022-08-04T08:27:56.258Z,2.97
2022-08-04T08:28:58.727Z,2.63
2022-08-04T08:30:00.702Z,2.85
2022-08-04T08:31:02.751Z,2.30
2022-08-04T08:32:14.420Z,2.40
2022-08-04T08:33:18.091Z,2.70
2022-08-04T08:34:28.034Z,2.42
2022-08-04T08:35:35.408Z,2.80
2022-08-04T08:36:50.753Z,2.70
2022-08-04T08:38:03.143Z,2.40
2022-08-04T08:39:20.469Z,2.40
2022-08-04T08:40:41.397Z,2.65
2022-08-04T08:42:18.953Z,2.70
2022-08-04T08:44:04.929Z,3.08
2022-08-04T08:45:41.624Z,2.60
2022-08-04T08:47:01.580Z,3.10
2022-08-04T08:48:33.202Z,3.38
2022-08-04T08:50:04.348Z,3.08
2022-08-04T08:51:26.321Z,2.72
2022-08-04T08:53:03.219Z,2.50
2022-08-04T08:54:35.878Z,2.40
2022-08-04T08:55:50.203Z,2.65
2022-08-04T08:56:57.618Z,2.78
2022-08-04T08:58:14.708Z,2.58
2022-08-04T08:59:29.685Z,2.33
2022-08-04T09:00:42.524Z,2.53
2022-08-04T09:02:15.007Z,3.03
2022-08-04T09:03:48.803Z,2.58
2022-08-04T09:05:04.378Z,2.95
2022-08-04T09:06:36.964Z,2.97
2022-08-04T09:08:11.839Z,2.40
2022-08-04T09:09:22.526Z,2.22
2022-08-04T09:10:33.908Z,2.40
2022-08-04T09:11:43.899Z,2.50
2022-08-04T09:12:53.950Z,2.10
2022-08-04T09:14:20.689Z,2.13
2022-08-04T09:15:33.369Z,2.85
2022-08-04T09:16:45.401Z,2.33
2022-08-04T09:18:02.132Z,2.10
2022-08-04T09:19:38.750Z,1.90
2022-08-04T09:21:04.609Z,2.20
2022-08-04T09:22:43.803Z,1.80
2022-08-04T09:23:49.150Z,1.70
2022-08-04T09:25:09.962Z,2.25
2022-08-04T09:26:20.493Z,2.22
2022-08-04T09:27:35.585Z,2.22
2022-08-04T09:29:18.158Z,1.75
2022-08-04T09:30:29.150Z,2.10
2022-08-04T09:33:17.653Z,2.10
2022-08-04T09:35:03.089Z,2.25
2022-08-04T09:36:34.063Z,2.58
2022-08-04T09:37:53.703Z,1.85
2022-08-04T09:39:13.801Z,1.80
2022-08-04T09:40:53.808Z,2.03
2022-08-04T09:42:31.684Z,2.22
2022-08-04T09:44:43.103Z,1.88
2022-08-04T09:45:43.197Z,2.50
2022-08-04T09:47:09.116Z,2.72
2022-08-04T09:48:36.974Z,2.28
2022-08-04T09:50:08.485Z,2.20
2022-08-04T09:52:59.678Z,2.50
2022-08-04T09:54:30.648Z,2.20
2022-08-04T09:57:11.823Z,2.67
2022-08-04T09:58:16.674Z,2.33
2022-08-04T09:59:46.516Z,2.38
2022-08-04T10:00:53.437Z,2.42
2022-08-04T10:01:59.974Z,2.10
2022-08-04T10:03:02.832Z,2.40
2022-08-04T10:04:12.176Z,2.25
2022-08-04T10:05:20.480Z,2.25
2022-08-04T10:06:48.270Z,2.38
2022-08-04T10:08:15.733Z,2.35
2022-08-04T10:09:25.066Z,2.70
2022-08-04T10:10:35.578Z,2.55
2022-08-04T10:12:07.348Z,2.28
2022-08-04T10:13:22.563Z,2.20
2022-08-04T10:14:56.267Z,2.60
2022-08-04T10:16:23.857Z,2.17
2022-08-04T10:17:43.587Z,2.67
2022-08-04T10:19:25.742Z,2.40
2022-08-04T10:20:57.527Z,2.70
2022-08-04T10:22:37.076Z,2.58
2022-08-04T10:24:05.859Z,1.90
2022-08-04T10:26:07.715Z,2.38
2022-08-04T10:27:14.898Z,2.60
2022-08-04T10:28:21.488Z,2.50
2022-08-04T10:29:44.392Z,2.42
2022-08-04T10:30:51.882Z,2.38
2022-08-04T10:32:15.929Z,2.30
2022-08-04T10:33:25.786Z,2.45
2022-08-04T10:34:32.051Z,2.37
2022-08-04T10:35:43.494Z,2.40
2022-08-04T10:36:52.238Z,2.72
2022-08-04T10:38:31.365Z,2.40
2022-08-04T10:40:07.076Z,2.20
2022-08-04T10:41:22.822Z,2.45
2022-08-04T10:42:29.724Z,2.20
2022-08-04T10:43:52.232Z,2.35
2022-08-04T10:45:17.100Z,2.53
2022-08-04T10:46:29.403Z,2.75
2022-08-04T10:47:38.352Z,2.47
2022-08-04T10:48:51.776Z,2.85
2022-08-04T10:50:01.419Z,2.35
2022-08-04T10:51:11.602Z,2.65
2022-08-04T10:52:34.537Z,2.75
2022-08-04T10:53:38.980Z,2.40
2022-08-04T10:55:03.841Z,2.67
2022-08-04T10:56:23.770Z,2.33
2022-08-04T10:57:46.190Z,2.42
2022-08-04T10:58:56.305Z,2.50
2022-08-04T11:00:06.429Z,2.80
2022-08-04T11:02:00.008Z,2.38
2022-08-04T11:02:48.121Z,2.08
2022-08-04T11:03:58.661Z,2.50
2022-08-04T11:05:44.079Z,2.85
2022-08-04T11:06:47.384Z,2.60
2022-08-04T11:07:53.752Z,3.17
2022-08-04T11:08:57.107Z,2.90
2022-08-04T11:09:59.217Z,2.97
2022-08-04T11:11:15.033Z,3.33
2022-08-04T11:12:23.464Z,4.60
2022-08-04T11:13:30.227Z,3.25
2022-08-04T11:14:41.839Z,2.75
2022-08-04T11:15:58.374Z,2.55
2022-08-04T11:17:16.692Z,2.50
2022-08-04T11:18:46.787Z,2.80
2022-08-04T11:20:34.521Z,4.25
2022-08-04T11:21:36.030Z,3.05
2022-08-04T11:22:47.567Z,2.78
2022-08-04T11:24:01.844Z,3.08
2022-08-04T11:25:21.764Z,2.70
2022-08-04T11:26:37.333Z,2.88
2022-08-04T11:28:16.239Z,2.55
2022-08-04T11:29:38.681Z,2.70
2022-08-04T11:30:50.089Z,2.20
2022-08-04T11:31:53.503Z,2.83
2022-08-04T11:33:12.790Z,2.20
2022-08-04T11:34:25.885Z,3.35
2022-08-04T11:35:33.773Z,3.13
2022-08-04T11:36:50.639Z,2.50
2022-08-04T11:38:02.846Z,2.65
2022-08-04T11:39:18.441Z,2.97
2022-08-04T11:40:24.534Z,2.60
2022-08-04T11:41:47.620Z,3.28
2022-08-04T11:43:00.865Z,2.58
2022-08-04T11:44:10.416Z,3.80
2022-08-04T11:45:18.208Z,2.60
2022-08-04T11:46:28.160Z,2.80
2022-08-04T11:47:41.547Z,3.70
2022-08-04T11:48:53.280Z,3.35
2022-08-04T11:50:03.568Z,2.70
2022-08-04T11:51:07.001Z,2.58
2022-08-04T11:52:12.609Z,2.30
2022-08-04T11:53:24.012Z,2.67
2022-08-04T11:54:25.845Z,2.80
2022-08-04T11:55:29.715Z,2.63
2022-08-04T11:56:36.977Z,2.42
2022-08-04T11:57:40.164Z,2.47
2022-08-04T11:58:50.601Z,2.58
2022-08-04T11:59:56.531Z,2.67
2022-08-04T12:01:27.881Z,2.65
2022-08-04T12:02:49.462Z,2.70
2022-08-04T12:04:04.333Z,2.80
2022-08-04T12:05:09.395Z,2.78
2022-08-04T12:07:04.612Z,2.30
2022-08-04T12:08:36.699Z,2.65
2022-08-04T12:10:00.755Z,2.70
2022-08-04T12:11:35.228Z,2.50
2022-08-04T12:12:58.861Z,2.95
2022-08-04T12:14:06.473Z,3.15
2022-08-04T12:15:36.253Z,2.63
2022-08-04T12:16:48.952Z,3.00
2022-08-04T12:18:16.577Z,2.60
2022-08-04T12:20:05.067Z,2.60
2022-08-04T12:21:31.747Z,2.80
2022-08-04T12:22:50.619Z,3.38
2022-08-04T12:24:00.835Z,2.53
2022-08-04T12:25:19.945Z,2.88
2022-08-04T12:26:28.276Z,2.75
2022-08-04T12:28:00.904Z,2.53
2022-08-04T12:29:11.554Z,2.65
2022-08-04T12:31:45.320Z,2.45
2022-08-04T12:33:03.871Z,2.45
2022-08-04T12:34:17.363Z,2.72
2022-08-04T12:35:27.821Z,2.40
2022-08-04T12:36:55.536Z,2.45
2022-08-04T12:38:05.164Z,2.47
2022-08-04T12:39:10.794Z,2.80
2022-08-04T12:40:30.246Z,2.67
2022-08-04T12:41:41.847Z,2.60
2022-08-04T12:43:00.080Z,2.60
2022-08-04T12:44:37.226Z,3.10
2022-08-04T12:45:34.974Z,3.05
2022-08-04T12:46:38.005Z,3.40
2022-08-04T12:47:41.890Z,3.08
2022-08-04T12:48:47.267Z,3.05
2022-08-04T12:50:00.151Z,3.10
2022-08-04T12:51:03.816Z,3.20
2022-08-04T12:52:09.444Z,2.90
2022-08-04T12:53:19.601Z,2.97
2022-08-04T12:54:36.948Z,3.20
2022-08-04T12:56:01.417Z,2.90
2022-08-04T12:57:07.518Z,3.50
2022-08-04T12:58:16.597Z,3.60
2022-08-04T12:59:43.960Z,3.67
2022-08-04T13:00:59.415Z,3.40
2022-08-04T13:02:07.188Z,3.17
2022-08-04T13:03:16.689Z,3.15
2022-08-04T13:04:21.879Z,3.58
2022-08-04T13:05:30.147Z,3.67
2022-08-04T13:06:35.664Z,2.90
2022-08-04T13:07:43.851Z,3.70
2022-08-04T13:08:47.309Z,2.92
2022-08-04T13:09:50.057Z,3.40
2022-08-04T13:10:57.473Z,2.95
2022-08-04T13:12:17.512Z,3.30
2022-08-04T13:13:25.872Z,3.70
2022-08-04T13:14:34.101Z,3.13
2022-08-04T13:15:46.988Z,2.95
2022-08-04T13:17:01.913Z,3.00
2022-08-04T13:18:14.868Z,3.17
2022-08-04T13:19:17.431Z,2.85
2022-08-04T13:20:30.509Z,2.92
2022-08-04T13:21:50.509Z,3.00
2022-08-04T13:23:09.205Z,3.15
2022-08-04T13:24:21.332Z,2.90
2022-08-04T13:26:42.822Z,3.30
2022-08-04T13:27:16.156Z,3.10
2022-08-04T13:28:24.094Z,3.15
2022-08-04T13:29:58.243Z,3.60
2022-08-04T13:31:01.714Z,3.20
2022-08-04T13:32:05.881Z,3.58
2022-08-04T13:33:08.054Z,3.72
2022-08-04T13:34:18.951Z,3.45
2022-08-04T13:35:21.584Z,3.33
2022-08-04T13:36:28.836Z,3.08
2022-08-04T13:37:35.045Z,3.35
2022-08-04T13:38:40.740Z,3.13
2022-08-04T13:39:55.332Z,3.60
2022-08-04T13:41:02.145Z,3.70
2022-08-04T13:42:10.090Z,3.22
2022-08-04T13:44:15.887Z,3.33
2022-08-04T13:44:49.357Z,3.78
2022-08-04T13:45:51.718Z,3.30
2022-08-04T13:47:01.380Z,3.33
2022-08-04T13:48:20.197Z,4.03
2022-08-04T13:49:48.593Z,3.67
2022-08-04T13:50:48.460Z,3.40
2022-08-04T13:52:04.749Z,3.80
2022-08-04T13:53:17.548Z,3.67
2022-08-04T13:54:24.205Z,3.67
2022-08-04T13:55:27.828Z,3.60
2022-08-04T13:56:35.095Z,3.60
2022-08-04T13:57:45.097Z,4.13
2022-08-04T13:58:49.863Z,3.72
2022-08-04T14:00:00.087Z,3.10
2022-08-04T14:01:11.078Z,3.35
2022-08-04T14:02:43.239Z,3.65
2022-08-04T14:04:21.945Z,3.40
2022-08-04T14:05:28.735Z,3.15
2022-08-04T14:06:34.965Z,3.30
2022-08-04T14:07:47.118Z,3.40
2022-08-04T14:09:17.448Z,3.28
2022-08-04T14:10:20.098Z,3.47
2022-08-04T14:12:06.841Z,3.17
2022-08-04T14:13:05.285Z,2.88
2022-08-04T14:14:29.096Z,3.10
2022-08-04T14:16:01.057Z,3.20
2022-08-04T14:17:05.383Z,2.90
2022-08-04T14:18:21.661Z,2.90
2022-08-04T14:19:31.097Z,2.90
2022-08-04T14:20:40.988Z,3.00
2022-08-04T14:21:43.005Z,2.70
2022-08-04T14:22:47.253Z,2.78
2022-08-04T14:23:52.555Z,3.75
2022-08-04T14:25:15.476Z,2.95
2022-08-04T14:26:33.813Z,3.10
2022-08-04T14:27:42.008Z,3.22
2022-08-04T14:29:25.146Z,3.53
2022-08-04T14:30:37.312Z,3.20
2022-08-04T14:31:55.371Z,3.22
2022-08-04T14:34:00.442Z,3.13
2022-08-04T14:34:29.002Z,2.95
2022-08-04T14:35:49.822Z,2.95
2022-08-04T14:37:18.439Z,3.00
2022-08-04T14:38:22.068Z,2.90
2022-08-04T14:40:18.681Z,3.10
2022-08-04T14:41:07.240Z,2.90
2022-08-04T14:42:09.646Z,3.10
2022-08-04T14:43:11.608Z,3.20
2022-08-04T14:44:13.877Z,2.80
2022-08-04T14:45:15.793Z,2.50
2022-08-04T14:46:19.405Z,2.95
2022-08-04T14:47:53.804Z,2.67
2022-08-04T14:49:10.947Z,2.90
2022-08-04T14:50:14.985Z,2.83
2022-08-04T14:51:26.228Z,2.90
2022-08-04T14:52:40.018Z,2.83
2022-08-04T14:53:48.144Z,2.83
2022-08-04T14:54:53.307Z,2.97
2022-08-04T14:55:58.019Z,2.83
2022-08-04T14:57:12.495Z,2.90
2022-08-04T14:58:33.695Z,3.10
2022-08-04T14:59:59.535Z,2.75
2022-08-04T15:01:09.836Z,2.78
2022-08-04T15:02:16.819Z,2.90
2022-08-04T15:03:21.938Z,2.83
2022-08-04T15:04:27.964Z,2.67
2022-08-04T15:06:02.993Z,3.13
2022-08-04T15:06:56.561Z,2.80
2022-08-04T15:08:02.755Z,2.90
2022-08-04T15:09:11.401Z,2.50
2022-08-04T15:10:14.359Z,2.65
2022-08-04T15:11:23.428Z,2.88
2022-08-04T15:12:27.290Z,2.90
2022-08-04T15:13:38.742Z,3.05
2022-08-04T15:15:20.049Z,2.70
2022-08-04T15:16:28.302Z,2.95
2022-08-04T15:17:37.402Z,2.90
2022-08-04T15:18:42.996Z,2.53
2022-08-04T15:19:55.713Z,2.72
2022-08-04T15:21:02.469Z,2.63
2022-08-04T15:22:05.690Z,2.97
2022-08-04T15:23:10.989Z,2.83
2022-08-04T15:24:15.125Z,2.65
2022-08-04T15:25:19.286Z,3.10
2022-08-04T15:26:37.579Z,2.67
2022-08-04T15:27:40.854Z,2.70
2022-08-04T15:28:50.386Z,2.65
2022-08-04T15:29:59.490Z,2.67
2022-08-04T15:32:04.291Z,2.70
2022-08-04T15:33:21.964Z,2.90
2022-08-04T15:34:26.485Z,2.55
2022-08-04T15:35:39.086Z,2.47
2022-08-04T15:37:45.091Z,2.47
2022-08-04T15:39:21.744Z,2.53
2022-08-04T15:40:48.939Z,2.67
2022-08-04T15:42:21.470Z,2.78
2022-08-04T15:43:34.955Z,2.58
2022-08-04T15:45:16.845Z,2.22
2022-08-04T15:46:45.504Z,2.47
2022-08-04T15:48:09.355Z,2.42
2022-08-04T15:49:31.153Z,2.88
2022-08-04T15:50:34.853Z,2.60
2022-08-04T15:51:38.832Z,2.58
2022-08-04T15:53:10.035Z,2.38
2022-08-04T15:54:16.901Z,2.20
2022-08-04T15:55:35.568Z,2.67
2022-08-04T15:56:48.520Z,2.40
2022-08-04T15:58:13.191Z,2.55
2022-08-04T15:59:16.400Z,2.65
2022-08-04T16:00:26.542Z,2.42
2022-08-04T16:01:28.694Z,3.10
2022-08-04T16:02:42.992Z,2.85
2022-08-04T16:03:58.946Z,2.88
2022-08-04T16:05:17.867Z,2.60
2022-08-04T16:06:20.567Z,2.33
2022-08-04T16:07:56.760Z,2.55
2022-08-04T16:09:00.835Z,2.70
2022-08-04T16:10:31.348Z,2.42
2022-08-04T16:11:35.282Z,2.67
2022-08-04T16:13:00.014Z,2.85
2022-08-04T16:14:02.071Z,2.35
2022-08-04T16:15:38.816Z,2.15
2022-08-04T16:16:41.077Z,2.03
2022-08-04T16:17:43.348Z,2.33
2022-08-04T16:18:46.272Z,2.67
2022-08-04T16:20:04.081Z,2.53
2022-08-04T16:21:17.941Z,2.45
2022-08-04T16:22:48.862Z,2.33
2022-08-04T16:23:59.278Z,2.60
2022-08-04T16:25:05.371Z,2.70
2022-08-04T16:26:07.237Z,2.78
2022-08-04T16:27:13.194Z,2.67
2022-08-04T16:28:38.040Z,2.40
2022-08-04T16:29:44.323Z,2.70
2022-08-04T16:30:46.093Z,2.60
2022-08-04T16:32:06.199Z,2.53
2022-08-04T16:33:09.072Z,2.45
2022-08-04T16:34:48.002Z,2.40
2022-08-04T16:35:39.248Z,2.60
2022-08-04T16:36:58.427Z,2.60
2022-08-04T16:38:14.858Z,2.33
2022-08-04T16:39:19.645Z,2.55
2022-08-04T16:40:38.871Z,2.72
2022-08-04T16:41:43.493Z,2.38
2022-08-04T16:42:46.128Z,2.60
2022-08-04T16:43:47.886Z,3.00
2022-08-04T16:45:02.315Z,2.63
2022-08-04T16:46:05.176Z,2.92
2022-08-04T16:47:22.283Z,2.90
2022-08-04T16:48:27.176Z,2.40
2022-08-04T16:49:30.686Z,2.90
2022-08-04T16:50:32.954Z,2.35
2022-08-04T16:51:34.886Z,2.25
2022-08-04T16:52:44.193Z,2.88
2022-08-04T16:53:52.241Z,2.30
2022-08-04T16:54:59.125Z,2.95
2022-08-04T16:56:01.257Z,2.72
2022-08-04T16:57:10.398Z,2.70
2022-08-04T16:58:12.505Z,2.72
2022-08-04T16:59:14.372Z,2.47
2022-08-04T17:00:17.355Z,2.47